createdAt,value
2019-05-07T00:00:25.496Z,18.73
2019-05-07T00:01:25.466Z,18.67
2019-05-07T00:02:25.458Z,18.73
2019-05-07T00:03:25.447Z,18.68
2019-05-07T00:04:25.461Z,18.78
2019-05-07T00:05:25.421Z,18.79
2019-05-07T00:06:25.416Z,18.71
2019-05-07T00:07:25.409Z,18.76
2019-05-07T00:08:25.398Z,18.81
2019-05-07T00:09:25.392Z,18.78
2019-05-07T00:10:25.385Z,18.83
2019-05-07T00:11:25.381Z,18.92
2019-05-07T00:12:25.351Z,19.05
2019-05-07T00:13:25.344Z,19.09
2019-05-07T00:14:25.331Z,19.30
2019-05-07T00:15:25.333Z,19.47
2019-05-07T00:16:25.311Z,19.63
2019-05-07T00:17:25.300Z,19.71
2019-05-07T00:18:25.289Z,19.90
2019-05-07T00:19:25.281Z,20.07
2019-05-07T00:20:25.285Z,20.24
2019-05-07T00:21:25.257Z,20.44
2019-05-07T00:22:25.249Z,20.60
2019-05-07T00:23:25.235Z,20.82
2019-05-07T00:24:25.228Z,20.89
2019-05-07T00:25:25.226Z,20.86
2019-05-07T00:26:25.221Z,21.10
2019-05-07T00:27:25.202Z,21.28
2019-05-07T00:28:25.185Z,21.53
2019-05-07T00:29:25.177Z,21.54
2019-05-07T00:30:25.179Z,21.75
2019-05-07T00:31:25.152Z,21.89
2019-05-07T00:32:25.143Z,22.01
2019-05-07T00:33:25.130Z,22.16
2019-05-07T00:34:25.126Z,22.18
2019-05-07T00:35:25.127Z,22.22
2019-05-07T00:36:25.106Z,22.34
2019-05-07T00:37:25.097Z,22.38
2019-05-07T00:38:25.080Z,22.44
2019-05-07T00:39:25.067Z,22.51
2019-05-07T00:40:25.077Z,22.49
2019-05-07T00:41:25.049Z,22.62
2019-05-07T00:42:25.035Z,22.65
2019-05-07T00:43:25.024Z,22.68
2019-05-07T00:44:25.015Z,22.83
2019-05-07T00:45:25.017Z,22.81
2019-05-07T00:46:24.994Z,22.84
2019-05-07T00:47:24.982Z,22.84
2019-05-07T00:48:24.973Z,22.91
2019-05-07T00:49:24.971Z,22.93
2019-05-07T00:50:24.960Z,22.86
2019-05-07T00:51:24.981Z,22.78
2019-05-07T00:52:24.932Z,22.80
2019-05-07T00:53:24.919Z,22.63
2019-05-07T00:54:24.908Z,22.70
2019-05-07T00:55:24.908Z,22.58
2019-05-07T00:56:24.883Z,22.53
2019-05-07T00:57:24.875Z,22.52
2019-05-07T00:58:26.877Z,22.44
2019-05-07T00:59:24.851Z,22.40
2019-05-07T01:00:24.853Z,22.40
2019-05-07T01:01:24.829Z,22.43
2019-05-07T01:02:24.823Z,22.36
2019-05-07T01:03:24.808Z,22.26
2019-05-07T01:04:24.802Z,22.28
2019-05-07T01:05:24.802Z,22.16
2019-05-07T01:06:26.499Z,22.14
2019-05-07T01:07:24.771Z,22.10
2019-05-07T01:08:24.759Z,22.01
2019-05-07T01:09:24.745Z,21.96
2019-05-07T01:10:24.752Z,21.89
2019-05-07T01:11:24.726Z,21.80
2019-05-07T01:12:24.719Z,21.77
2019-05-07T01:13:24.709Z,21.68
2019-05-07T01:14:24.696Z,21.59
2019-05-07T01:15:30.695Z,21.62
2019-05-07T01:16:25.668Z,21.56
2019-05-07T01:17:24.661Z,21.50
2019-05-07T01:18:24.653Z,21.40
2019-05-07T01:19:24.644Z,21.33
2019-05-07T01:20:24.643Z,21.29
2019-05-07T01:21:24.619Z,21.25
2019-05-07T01:22:24.610Z,21.19
2019-05-07T01:23:24.595Z,21.08
2019-05-07T01:24:24.587Z,21.03
2019-05-07T01:25:24.593Z,21.00
2019-05-07T01:26:24.569Z,21.03
2019-05-07T01:27:24.562Z,20.90
2019-05-07T01:28:24.545Z,20.93
2019-05-07T01:29:24.535Z,20.82
2019-05-07T01:30:24.556Z,20.89
2019-05-07T01:31:24.521Z,20.89
2019-05-07T01:32:24.506Z,20.83
2019-05-07T01:33:24.492Z,20.83
2019-05-07T01:34:24.484Z,20.75
2019-05-07T01:35:24.474Z,20.71
2019-05-07T01:36:24.483Z,20.68
2019-05-07T01:37:24.450Z,20.70
2019-05-07T01:38:24.440Z,20.58
2019-05-07T01:39:24.431Z,20.52
2019-05-07T01:40:24.430Z,20.55
2019-05-07T01:41:24.424Z,20.52
2019-05-07T01:42:24.402Z,20.49
2019-05-07T01:43:24.388Z,20.49
2019-05-07T01:44:24.375Z,20.46
2019-05-07T01:45:24.951Z,20.46
2019-05-07T01:46:24.748Z,20.46
2019-05-07T01:47:24.348Z,20.36
2019-05-07T01:48:24.329Z,20.29
2019-05-07T01:49:24.329Z,20.26
2019-05-07T01:50:24.313Z,20.15
2019-05-07T01:51:24.314Z,20.26
2019-05-07T01:52:24.299Z,20.12
2019-05-07T01:53:24.288Z,20.24
2019-05-07T01:54:24.273Z,20.14
2019-05-07T01:55:24.258Z,20.18
2019-05-07T01:56:24.264Z,20.03
2019-05-07T01:57:24.238Z,20.08
2019-05-07T01:58:24.225Z,20.07
2019-05-07T01:59:24.219Z,20.03
2019-05-07T02:00:24.308Z,20.03
2019-05-07T02:01:24.210Z,19.94
2019-05-07T02:02:24.190Z,19.87
2019-05-07T02:03:24.178Z,19.92
2019-05-07T02:04:24.163Z,19.90
2019-05-07T02:05:24.156Z,19.89
2019-05-07T02:06:24.161Z,19.81
2019-05-07T02:07:24.134Z,19.92
2019-05-07T02:08:24.123Z,19.82
2019-05-07T02:09:24.113Z,19.81
2019-05-07T02:10:24.097Z,19.79
2019-05-07T02:11:24.107Z,19.75
2019-05-07T02:12:24.082Z,19.74
2019-05-07T02:13:24.069Z,19.72
2019-05-07T02:14:24.069Z,19.59
2019-05-07T02:15:24.053Z,19.62
2019-05-07T02:16:24.048Z,19.63
2019-05-07T02:17:24.027Z,19.62
2019-05-07T02:18:24.018Z,19.62
2019-05-07T02:19:24.005Z,19.64
2019-05-07T02:20:24.030Z,19.63
2019-05-07T02:21:24.017Z,19.79
2019-05-07T02:22:23.974Z,19.75
2019-05-07T02:23:23.966Z,19.81
2019-05-07T02:24:23.954Z,19.87
2019-05-07T02:25:23.960Z,20.07
2019-05-07T02:26:23.926Z,20.11
2019-05-07T02:27:23.941Z,20.36
2019-05-07T02:28:23.911Z,20.60
2019-05-07T02:29:23.897Z,20.75
2019-05-07T02:30:24.241Z,20.83
2019-05-07T02:31:23.881Z,21.03
2019-05-07T02:32:24.281Z,21.20
2019-05-07T02:33:23.857Z,21.38
2019-05-07T02:34:23.845Z,21.45
2019-05-07T02:35:24.018Z,21.58
2019-05-07T02:36:24.116Z,21.78
2019-05-07T02:37:27.416Z,22.03
2019-05-07T02:38:24.801Z,22.19
2019-05-07T02:39:24.281Z,22.23
2019-05-07T02:40:23.781Z,22.28
2019-05-07T02:41:23.775Z,22.33
2019-05-07T02:42:24.101Z,22.25
2019-05-07T02:43:23.753Z,22.33
2019-05-07T02:44:23.743Z,22.31
2019-05-07T02:45:24.081Z,22.30
2019-05-07T02:46:30.977Z,22.16
2019-05-07T02:47:24.717Z,22.21
2019-05-07T02:48:23.903Z,22.18
2019-05-07T02:49:23.753Z,22.18
2019-05-07T02:50:23.676Z,22.19
2019-05-07T02:51:23.967Z,22.12
2019-05-07T02:52:23.674Z,22.04
2019-05-07T02:53:23.702Z,22.04
2019-05-07T02:54:24.421Z,22.06
2019-05-07T02:55:23.620Z,22.01
2019-05-07T02:56:23.838Z,21.99
2019-05-07T02:57:24.232Z,21.99
2019-05-07T02:58:24.124Z,21.85
2019-05-07T02:59:23.759Z,21.94
2019-05-07T03:00:24.391Z,21.92
2019-05-07T03:01:23.553Z,21.77
2019-05-07T03:02:24.291Z,21.70
2019-05-07T03:03:24.645Z,21.65
2019-05-07T03:04:25.124Z,21.63
2019-05-07T03:05:23.511Z,21.59
2019-05-07T03:06:23.553Z,21.51
2019-05-07T03:07:24.137Z,21.54
2019-05-07T03:08:27.245Z,21.54
2019-05-07T03:09:23.486Z,21.47
2019-05-07T03:10:24.080Z,21.50
2019-05-07T03:11:23.447Z,21.38
2019-05-07T03:12:23.880Z,21.41
2019-05-07T03:13:24.086Z,21.37
2019-05-07T03:14:23.694Z,21.30
2019-05-07T03:15:24.201Z,21.25
2019-05-07T03:16:38.162Z,21.14
2019-05-07T03:17:24.877Z,21.13
2019-05-07T03:18:23.511Z,21.11
2019-05-07T03:19:24.185Z,21.05
2019-05-07T03:20:23.354Z,20.93
2019-05-07T03:21:23.791Z,21.01
2019-05-07T03:22:23.568Z,21.00
2019-05-07T03:23:23.315Z,20.92
2019-05-07T03:24:23.306Z,20.80
2019-05-07T03:25:23.334Z,20.80
2019-05-07T03:26:23.313Z,20.82
2019-05-07T03:27:23.737Z,20.89
2019-05-07T03:28:23.384Z,20.85
2019-05-07T03:29:24.017Z,20.88
2019-05-07T03:30:26.086Z,20.85
2019-05-07T03:31:26.156Z,20.75
2019-05-07T03:32:27.354Z,20.68
2019-05-07T03:33:26.124Z,20.66
2019-05-07T03:34:25.685Z,20.60
2019-05-07T03:35:27.289Z,20.63
2019-05-07T03:36:26.102Z,20.59
2019-05-07T03:37:23.471Z,20.56
2019-05-07T03:38:23.161Z,20.58
2019-05-07T03:39:24.046Z,20.58
2019-05-07T03:40:23.279Z,20.49
2019-05-07T03:41:23.136Z,20.46
2019-05-07T03:42:23.678Z,20.42
2019-05-07T03:43:23.122Z,20.48
2019-05-07T03:44:23.894Z,20.37
2019-05-07T03:45:23.304Z,20.27
2019-05-07T03:46:23.649Z,20.27
2019-05-07T03:47:23.894Z,20.26
2019-05-07T03:48:24.057Z,20.22
2019-05-07T03:49:23.047Z,20.17
2019-05-07T03:50:23.356Z,20.14
2019-05-07T03:51:23.740Z,20.19
2019-05-07T03:52:24.411Z,20.17
2019-05-07T03:53:23.580Z,20.15
2019-05-07T03:54:23.922Z,20.10
2019-05-07T03:55:23.489Z,20.08
2019-05-07T03:56:23.719Z,20.04
2019-05-07T03:57:23.771Z,19.99
2019-05-07T03:58:23.701Z,20.04
2019-05-07T03:59:23.384Z,19.96
2019-05-07T04:00:23.943Z,19.96
2019-05-07T04:01:24.067Z,19.94
2019-05-07T04:02:23.944Z,20.02
2019-05-07T04:03:24.413Z,19.92
2019-05-07T04:04:23.213Z,19.96
2019-05-07T04:05:23.301Z,19.92
2019-05-07T04:06:23.467Z,19.94
2019-05-07T04:07:23.471Z,19.94
2019-05-07T04:08:23.937Z,19.90
2019-05-07T04:09:24.157Z,19.92
2019-05-07T04:10:23.342Z,19.92
2019-05-07T04:11:23.256Z,19.94
2019-05-07T04:12:23.875Z,19.89
2019-05-07T04:13:23.822Z,19.85
2019-05-07T04:14:23.208Z,19.93
2019-05-07T04:15:23.443Z,19.94
2019-05-07T04:16:24.021Z,19.97
2019-05-07T04:17:26.699Z,19.93
2019-05-07T04:18:23.764Z,19.93
2019-05-07T04:19:23.526Z,19.96
2019-05-07T04:20:23.898Z,20.02
2019-05-07T04:21:23.303Z,20.03
2019-05-07T04:22:25.202Z,20.15
2019-05-07T04:23:23.808Z,20.15
2019-05-07T04:24:23.519Z,20.24
2019-05-07T04:25:24.008Z,20.26
2019-05-07T04:26:23.423Z,20.27
2019-05-07T04:27:23.814Z,20.33
2019-05-07T04:28:23.550Z,20.44
2019-05-07T04:29:23.241Z,20.36
2019-05-07T04:30:23.480Z,20.46
2019-05-07T04:31:23.061Z,20.49
2019-05-07T04:32:23.165Z,20.56
2019-05-07T04:33:23.642Z,20.56
2019-05-07T04:34:23.778Z,20.56
2019-05-07T04:35:24.427Z,20.55
2019-05-07T04:36:23.229Z,20.58
2019-05-07T04:37:23.996Z,20.58
2019-05-07T04:38:23.862Z,20.60
2019-05-07T04:39:23.382Z,20.53
2019-05-07T04:40:23.971Z,20.49
2019-05-07T04:41:23.510Z,20.50
2019-05-07T04:42:24.382Z,20.42
2019-05-07T04:43:23.255Z,20.37
2019-05-07T04:44:23.545Z,20.46
2019-05-07T04:45:23.280Z,20.46
2019-05-07T04:46:23.554Z,20.44
2019-05-07T04:47:34.455Z,20.44
2019-05-07T04:48:23.724Z,20.40
2019-05-07T04:49:23.897Z,20.49
2019-05-07T04:50:37.817Z,20.40
2019-05-07T04:51:23.471Z,20.42
2019-05-07T04:52:23.855Z,20.36
2019-05-07T04:53:23.659Z,20.33
2019-05-07T04:54:23.657Z,20.33
2019-05-07T04:55:22.907Z,20.29
2019-05-07T04:56:23.848Z,20.30
2019-05-07T04:57:23.665Z,20.26
2019-05-07T04:58:23.710Z,20.21
2019-05-07T04:59:23.722Z,20.24
2019-05-07T05:00:23.095Z,20.19
2019-05-07T05:01:23.488Z,20.24
2019-05-07T05:02:23.030Z,20.24
2019-05-07T05:03:23.688Z,20.18
2019-05-07T05:04:30.312Z,20.21
2019-05-07T05:05:23.838Z,20.19
2019-05-07T05:06:24.100Z,20.17
2019-05-07T05:07:22.552Z,20.14
2019-05-07T05:08:23.446Z,20.08
2019-05-07T05:09:23.354Z,20.10
2019-05-07T05:10:23.281Z,20.02
2019-05-07T05:11:23.772Z,20.03
2019-05-07T05:12:23.053Z,20.03
2019-05-07T05:13:23.454Z,19.99
2019-05-07T05:14:22.919Z,20.04
2019-05-07T05:15:22.303Z,20.00
2019-05-07T05:16:22.494Z,19.94
2019-05-07T05:17:22.489Z,19.96
2019-05-07T05:18:22.191Z,19.92
2019-05-07T05:19:23.023Z,19.93
2019-05-07T05:20:22.263Z,19.90
2019-05-07T05:21:22.752Z,19.90
2019-05-07T05:22:22.256Z,19.96
2019-05-07T05:23:22.785Z,19.90
2019-05-07T05:24:22.259Z,19.92
2019-05-07T05:25:22.715Z,19.92
2019-05-07T05:26:22.034Z,19.84
2019-05-07T05:27:22.613Z,19.87
2019-05-07T05:28:22.068Z,19.89
2019-05-07T05:29:22.725Z,19.82
2019-05-07T05:30:22.077Z,19.82
2019-05-07T05:31:22.368Z,19.85
2019-05-07T05:32:22.733Z,19.82
2019-05-07T05:33:23.473Z,19.77
2019-05-07T05:34:22.359Z,19.77
2019-05-07T05:35:22.271Z,19.74
2019-05-07T05:36:22.291Z,19.75
2019-05-07T05:37:22.652Z,19.75
2019-05-07T05:38:22.337Z,19.60
2019-05-07T05:39:22.517Z,19.57
2019-05-07T05:40:22.674Z,19.63
2019-05-07T05:41:22.604Z,19.60
2019-05-07T05:42:22.558Z,19.62
2019-05-07T05:43:22.449Z,19.59
2019-05-07T05:44:22.736Z,19.57
2019-05-07T05:45:21.887Z,19.57
2019-05-07T05:46:22.643Z,19.57
2019-05-07T05:47:22.241Z,19.55
2019-05-07T05:48:22.369Z,19.60
2019-05-07T05:49:22.953Z,19.57
2019-05-07T05:50:21.925Z,19.57
2019-05-07T05:51:22.752Z,19.62
2019-05-07T05:52:22.145Z,19.62
2019-05-07T05:53:21.940Z,19.66
2019-05-07T05:54:22.329Z,19.67
2019-05-07T05:55:22.681Z,19.64
2019-05-07T05:56:22.845Z,19.71
2019-05-07T05:57:23.011Z,19.66
2019-05-07T05:58:24.201Z,19.64
2019-05-07T05:59:27.822Z,19.70
2019-05-07T06:00:22.651Z,19.74
2019-05-07T06:01:22.563Z,19.74
2019-05-07T06:02:22.817Z,19.71
2019-05-07T06:03:22.739Z,19.77
2019-05-07T06:04:22.245Z,19.81
2019-05-07T06:05:22.131Z,19.74
2019-05-07T06:06:22.026Z,19.71
2019-05-07T06:07:22.661Z,19.72
2019-05-07T06:08:23.869Z,19.79
2019-05-07T06:09:22.019Z,19.90
2019-05-07T06:10:22.457Z,19.87
2019-05-07T06:11:21.934Z,19.90
2019-05-07T06:12:22.110Z,19.89
2019-05-07T06:13:23.078Z,19.87
2019-05-07T06:14:22.219Z,19.93
2019-05-07T06:15:22.258Z,19.96
2019-05-07T06:16:22.061Z,19.96
2019-05-07T06:17:22.423Z,19.92
2019-05-07T06:18:23.980Z,19.96
2019-05-07T06:19:22.585Z,19.92
2019-05-07T06:20:22.626Z,19.82
2019-05-07T06:21:21.423Z,19.87
2019-05-07T06:22:22.344Z,19.94
2019-05-07T06:23:22.474Z,19.87
2019-05-07T06:24:22.616Z,19.85
2019-05-07T06:25:24.658Z,19.94
2019-05-07T06:26:22.716Z,20.00
2019-05-07T06:27:22.932Z,20.03
2019-05-07T06:28:22.378Z,20.07
2019-05-07T06:29:23.117Z,20.12
2019-05-07T06:30:22.731Z,20.12
2019-05-07T06:31:22.147Z,20.18
2019-05-07T06:32:22.901Z,20.12
2019-05-07T06:33:23.001Z,20.14
2019-05-07T06:34:21.993Z,20.26
2019-05-07T06:35:23.002Z,20.26
2019-05-07T06:36:22.008Z,20.29
2019-05-07T06:37:22.798Z,20.26
2019-05-07T06:38:22.046Z,20.29
2019-05-07T06:39:22.135Z,20.36
2019-05-07T06:40:24.066Z,20.48
2019-05-07T06:41:22.718Z,20.46
2019-05-07T06:42:22.150Z,20.33
2019-05-07T06:43:21.889Z,20.48
2019-05-07T06:44:22.384Z,20.53
2019-05-07T06:45:22.741Z,20.56
2019-05-07T06:46:23.217Z,20.58
2019-05-07T06:47:22.182Z,20.55
2019-05-07T06:48:36.768Z,20.58
2019-05-07T06:49:22.358Z,20.60
2019-05-07T06:50:22.074Z,20.49
2019-05-07T06:51:22.094Z,20.58
2019-05-07T06:52:22.456Z,20.58
2019-05-07T06:53:22.219Z,20.58
2019-05-07T06:54:22.589Z,20.59
2019-05-07T06:55:22.831Z,20.56
2019-05-07T06:56:23.010Z,20.56
2019-05-07T06:57:22.213Z,20.55
2019-05-07T06:58:21.964Z,20.55
2019-05-07T06:59:22.449Z,20.58
2019-05-07T07:00:22.579Z,20.59
2019-05-07T07:01:22.832Z,20.56
2019-05-07T07:02:22.510Z,20.52
2019-05-07T07:03:22.302Z,20.49
2019-05-07T07:04:22.529Z,20.50
2019-05-07T07:05:25.354Z,20.40
2019-05-07T07:06:22.902Z,20.39
2019-05-07T07:07:27.564Z,20.34
2019-05-07T07:08:23.040Z,20.42
2019-05-07T07:09:22.295Z,20.40
2019-05-07T07:10:22.638Z,20.37
2019-05-07T07:11:22.395Z,20.34
2019-05-07T07:12:23.990Z,20.30
2019-05-07T07:13:22.834Z,20.24
2019-05-07T07:14:22.754Z,20.27
2019-05-07T07:15:23.073Z,20.32
2019-05-07T07:16:22.618Z,20.27
2019-05-07T07:17:22.335Z,20.26
2019-05-07T07:18:22.953Z,20.26
2019-05-07T07:19:23.120Z,20.27
2019-05-07T07:20:21.893Z,20.24
2019-05-07T07:21:21.953Z,20.22
2019-05-07T07:22:22.276Z,20.17
2019-05-07T07:23:22.695Z,20.21
2019-05-07T07:24:22.144Z,20.04
2019-05-07T07:25:22.883Z,20.04
2019-05-07T07:26:22.050Z,20.10
2019-05-07T07:27:22.744Z,20.11
2019-05-07T07:28:21.969Z,20.04
2019-05-07T07:29:22.018Z,20.04
2019-05-07T07:30:21.864Z,20.02
2019-05-07T07:31:22.650Z,20.02
2019-05-07T07:32:22.166Z,20.00
2019-05-07T07:33:22.448Z,20.10
2019-05-07T07:34:22.801Z,19.93
2019-05-07T07:35:22.575Z,19.96
2019-05-07T07:36:22.578Z,20.02
2019-05-07T07:37:22.809Z,19.99
2019-05-07T07:38:22.278Z,19.94
2019-05-07T07:39:22.074Z,19.85
2019-05-07T07:40:22.421Z,19.81
2019-05-07T07:41:22.250Z,19.81
2019-05-07T07:42:22.818Z,19.84
2019-05-07T07:43:21.877Z,19.90
2019-05-07T07:44:22.358Z,19.90
2019-05-07T07:45:22.821Z,19.78
2019-05-07T07:46:22.163Z,19.82
2019-05-07T07:47:22.349Z,19.89
2019-05-07T07:48:22.549Z,19.82
2019-05-07T07:49:22.237Z,19.81
2019-05-07T07:50:22.393Z,19.87
2019-05-07T07:51:36.750Z,19.81
2019-05-07T07:52:23.015Z,19.87
2019-05-07T07:53:22.539Z,19.85
2019-05-07T07:54:22.446Z,19.79
2019-05-07T07:55:22.254Z,19.87
2019-05-07T07:56:22.879Z,19.82
2019-05-07T07:57:21.779Z,19.81
2019-05-07T07:58:22.177Z,19.85
2019-05-07T07:59:22.124Z,19.90
2019-05-07T08:00:20.353Z,19.82
2019-05-07T08:01:22.472Z,19.81
2019-05-07T08:02:22.729Z,19.78
2019-05-07T08:03:22.427Z,19.81
2019-05-07T08:04:22.688Z,19.77
2019-05-07T08:05:21.907Z,19.79
2019-05-07T08:06:22.417Z,19.75
2019-05-07T08:07:22.656Z,19.72
2019-05-07T08:08:21.947Z,19.79
2019-05-07T08:09:23.945Z,19.82
2019-05-07T08:10:22.130Z,19.79
2019-05-07T08:11:21.984Z,19.81
2019-05-07T08:12:22.193Z,19.79
2019-05-07T08:13:20.219Z,19.77
2019-05-07T08:14:21.946Z,19.79
2019-05-07T08:15:21.810Z,19.78
2019-05-07T08:16:22.167Z,19.77
2019-05-07T08:17:22.176Z,19.81
2019-05-07T08:18:22.131Z,19.79
2019-05-07T08:19:22.762Z,19.81
2019-05-07T08:20:22.159Z,19.77
2019-05-07T08:21:22.479Z,19.81
2019-05-07T08:22:22.350Z,19.87
2019-05-07T08:23:20.122Z,19.78
2019-05-07T08:24:20.096Z,19.85
2019-05-07T08:25:21.835Z,19.81
2019-05-07T08:26:21.904Z,19.81
2019-05-07T08:27:22.123Z,19.82
2019-05-07T08:28:22.758Z,19.96
2019-05-07T08:29:22.346Z,19.93
2019-05-07T08:30:22.101Z,19.90
2019-05-07T08:31:20.011Z,19.93
2019-05-07T08:32:22.134Z,19.99
2019-05-07T08:33:20.002Z,19.94
2019-05-07T08:34:21.843Z,19.97
2019-05-07T08:35:21.883Z,19.92
2019-05-07T08:36:22.466Z,19.85
2019-05-07T08:37:19.944Z,19.85
2019-05-07T08:38:21.942Z,19.89
2019-05-07T08:39:22.402Z,19.93
2019-05-07T08:40:22.106Z,19.84
2019-05-07T08:41:19.902Z,19.89
2019-05-07T08:42:19.891Z,19.89
2019-05-07T08:43:21.842Z,19.93
2019-05-07T08:44:22.197Z,19.94
2019-05-07T08:45:22.746Z,19.90
2019-05-07T08:46:22.312Z,19.82
2019-05-07T08:47:19.846Z,19.81
2019-05-07T08:48:21.684Z,19.89
2019-05-07T08:49:33.422Z,19.87
2019-05-07T08:50:22.221Z,19.87
2019-05-07T08:51:19.795Z,19.94
2019-05-07T08:52:19.783Z,19.90
2019-05-07T08:53:19.786Z,19.92
2019-05-07T08:54:19.762Z,19.96
2019-05-07T08:55:21.659Z,19.90
2019-05-07T08:56:19.740Z,19.90
2019-05-07T08:57:19.730Z,19.94
2019-05-07T08:58:19.732Z,19.99
2019-05-07T08:59:19.707Z,19.90
2019-05-07T09:00:19.696Z,19.97
2019-05-07T09:01:21.758Z,20.02
2019-05-07T09:02:21.785Z,19.97
2019-05-07T09:03:22.445Z,19.97
2019-05-07T09:04:21.953Z,20.04
2019-05-07T09:05:19.638Z,20.02
2019-05-07T09:06:21.977Z,19.96
2019-05-07T09:07:21.712Z,20.00
2019-05-07T09:08:21.739Z,19.94
2019-05-07T09:09:22.051Z,20.00
2019-05-07T09:10:21.702Z,19.89
2019-05-07T09:11:19.571Z,19.92
2019-05-07T09:12:19.565Z,19.85
2019-05-07T09:13:19.553Z,19.90
2019-05-07T09:14:19.554Z,19.93
2019-05-07T09:15:19.529Z,19.90
2019-05-07T09:16:19.520Z,20.00
2019-05-07T09:17:19.511Z,20.00
2019-05-07T09:18:19.495Z,19.99
2019-05-07T09:19:21.565Z,19.99
2019-05-07T09:20:19.487Z,19.94
2019-05-07T09:21:19.473Z,20.02
2019-05-07T09:22:19.451Z,19.99
2019-05-07T09:23:19.441Z,19.94
2019-05-07T09:24:19.449Z,19.93
2019-05-07T09:25:19.423Z,19.84
2019-05-07T09:26:19.417Z,19.81
2019-05-07T09:27:19.401Z,19.84
2019-05-07T09:28:19.389Z,19.79
2019-05-07T09:29:19.394Z,19.82
2019-05-07T09:30:19.367Z,19.81
2019-05-07T09:31:19.355Z,19.77
2019-05-07T09:32:19.375Z,19.64
2019-05-07T09:33:19.340Z,19.74
2019-05-07T09:34:19.335Z,19.70
2019-05-07T09:35:19.312Z,19.72
2019-05-07T09:36:19.308Z,19.72
2019-05-07T09:37:19.290Z,19.81
2019-05-07T09:38:19.280Z,19.77
2019-05-07T09:39:19.282Z,19.78
2019-05-07T09:40:19.258Z,19.79
2019-05-07T09:41:19.251Z,19.78
2019-05-07T09:42:19.247Z,19.81
2019-05-07T09:43:19.229Z,19.75
2019-05-07T09:44:19.228Z,19.77
2019-05-07T09:45:19.205Z,19.74
2019-05-07T09:46:20.728Z,19.74
2019-05-07T09:47:19.180Z,19.74
2019-05-07T09:48:19.173Z,19.74
2019-05-07T09:49:19.176Z,19.70
2019-05-07T09:50:19.151Z,19.67
2019-05-07T09:51:19.139Z,19.64
2019-05-07T09:52:19.125Z,19.70
2019-05-07T09:53:19.119Z,19.72
2019-05-07T09:54:19.120Z,19.70
2019-05-07T09:55:19.090Z,19.74
2019-05-07T09:56:19.118Z,19.75
2019-05-07T09:57:29.984Z,19.85
2019-05-07T09:58:35.033Z,19.90
2019-05-07T09:59:21.822Z,20.04
2019-05-07T10:00:19.040Z,20.15
2019-05-07T10:01:19.034Z,20.27
2019-05-07T10:02:19.018Z,20.32
2019-05-07T10:03:19.011Z,20.50
2019-05-07T10:04:19.014Z,20.56
2019-05-07T10:05:18.986Z,20.59
2019-05-07T10:06:18.971Z,20.70
2019-05-07T10:07:18.961Z,20.77
2019-05-07T10:08:18.954Z,20.88
2019-05-07T10:09:18.958Z,20.89
2019-05-07T10:10:19.440Z,20.90
2019-05-07T10:11:18.949Z,20.89
2019-05-07T10:12:18.910Z,21.05
2019-05-07T10:13:18.900Z,21.05
2019-05-07T10:14:18.901Z,21.04
2019-05-07T10:15:18.878Z,21.17
2019-05-07T10:16:18.879Z,21.15
2019-05-07T10:17:18.857Z,21.26
2019-05-07T10:18:18.849Z,21.28
2019-05-07T10:19:18.855Z,21.32
2019-05-07T10:20:22.371Z,21.32
2019-05-07T10:21:18.810Z,21.38
2019-05-07T10:22:18.807Z,21.38
2019-05-07T10:23:18.787Z,21.40
2019-05-07T10:24:18.793Z,21.47
2019-05-07T10:25:18.767Z,21.50
2019-05-07T10:26:18.753Z,21.48
2019-05-07T10:27:18.747Z,21.56
2019-05-07T10:28:18.738Z,21.56
2019-05-07T10:29:18.737Z,21.58
2019-05-07T10:30:18.721Z,21.56
2019-05-07T10:31:18.704Z,21.58
2019-05-07T10:32:18.697Z,21.54
2019-05-07T10:33:18.685Z,21.54
2019-05-07T10:34:18.670Z,21.60
2019-05-07T10:35:18.672Z,21.58
2019-05-07T10:36:18.652Z,21.56
2019-05-07T10:37:18.638Z,21.47
2019-05-07T10:38:18.640Z,21.51
2019-05-07T10:39:18.618Z,21.43
2019-05-07T10:40:18.622Z,21.50
2019-05-07T10:41:18.598Z,21.50
2019-05-07T10:42:18.590Z,21.40
2019-05-07T10:43:18.572Z,21.37
2019-05-07T10:44:18.564Z,21.38
2019-05-07T10:45:18.569Z,21.35
2019-05-07T10:46:18.542Z,21.37
2019-05-07T10:47:19.040Z,21.38
2019-05-07T10:48:18.530Z,21.25
2019-05-07T10:49:18.519Z,21.32
2019-05-07T10:50:31.731Z,21.30
2019-05-07T10:51:21.691Z,21.25
2019-05-07T10:52:18.484Z,21.17
2019-05-07T10:53:18.570Z,21.15
2019-05-07T10:54:18.467Z,21.15
2019-05-07T10:55:18.465Z,21.14
2019-05-07T10:56:18.438Z,21.15
2019-05-07T10:57:18.427Z,21.15
2019-05-07T10:58:18.416Z,21.22
2019-05-07T10:59:18.405Z,21.19
2019-05-07T11:00:18.424Z,21.26
2019-05-07T11:01:18.389Z,21.10
2019-05-07T11:02:18.377Z,21.14
2019-05-07T11:03:18.368Z,21.04
2019-05-07T11:04:18.355Z,21.11
2019-05-07T11:05:18.367Z,21.03
2019-05-07T11:06:18.327Z,20.90
2019-05-07T11:07:18.324Z,21.00
2019-05-07T11:08:18.327Z,20.93
2019-05-07T11:09:18.304Z,20.90
2019-05-07T11:10:18.302Z,20.95
2019-05-07T11:11:18.289Z,20.93
2019-05-07T11:12:18.273Z,20.93
2019-05-07T11:13:18.267Z,20.83
2019-05-07T11:14:18.252Z,20.88
2019-05-07T11:15:18.291Z,20.92
2019-05-07T11:16:18.227Z,20.86
2019-05-07T11:17:18.214Z,20.89
2019-05-07T11:18:18.201Z,20.85
2019-05-07T11:19:19.030Z,20.86
2019-05-07T11:20:18.206Z,20.85
2019-05-07T11:21:18.213Z,20.75
2019-05-07T11:22:18.167Z,20.73
2019-05-07T11:23:18.154Z,20.68
2019-05-07T11:24:18.182Z,20.83
2019-05-07T11:25:18.143Z,20.74
2019-05-07T11:26:18.150Z,20.75
2019-05-07T11:27:18.107Z,20.78
2019-05-07T11:28:18.098Z,20.82
2019-05-07T11:29:18.085Z,20.82
2019-05-07T11:30:18.083Z,20.71
2019-05-07T11:31:18.093Z,20.71
2019-05-07T11:32:18.056Z,20.68
2019-05-07T11:33:18.046Z,20.82
2019-05-07T11:34:18.057Z,20.82
2019-05-07T11:35:18.024Z,20.77
2019-05-07T11:36:18.072Z,20.71
2019-05-07T11:37:18.001Z,20.71
2019-05-07T11:38:21.492Z,20.75
2019-05-07T11:39:18.989Z,20.73
2019-05-07T11:40:19.984Z,20.63
2019-05-07T11:41:17.978Z,20.55
2019-05-07T11:42:17.977Z,20.55
2019-05-07T11:43:17.943Z,20.60
2019-05-07T11:44:17.949Z,20.60
2019-05-07T11:45:17.927Z,20.63
2019-05-07T11:46:17.955Z,20.53
2019-05-07T11:47:17.904Z,20.56
2019-05-07T11:48:17.892Z,20.59
2019-05-07T11:49:17.874Z,20.58
2019-05-07T11:50:17.865Z,20.53
2019-05-07T11:51:17.878Z,20.58
2019-05-07T11:52:17.840Z,20.49
2019-05-07T11:53:17.840Z,20.37
2019-05-07T11:54:17.823Z,20.42
2019-05-07T11:55:17.811Z,20.40
2019-05-07T11:56:17.821Z,20.42
2019-05-07T11:57:17.793Z,20.48
2019-05-07T11:58:17.815Z,20.39
2019-05-07T11:59:17.775Z,20.48
2019-05-07T12:00:17.775Z,20.42
2019-05-07T12:01:17.784Z,20.46
2019-05-07T12:02:17.741Z,20.36
2019-05-07T12:03:17.730Z,20.37
2019-05-07T12:04:17.718Z,20.34
2019-05-07T12:05:17.812Z,20.33
2019-05-07T12:06:17.940Z,20.22
2019-05-07T12:07:17.836Z,20.30
2019-05-07T12:08:17.759Z,20.32
2019-05-07T12:09:17.667Z,20.33
2019-05-07T12:10:18.493Z,20.22
2019-05-07T12:11:17.830Z,20.27
2019-05-07T12:12:17.637Z,20.29
2019-05-07T12:13:17.738Z,20.22
2019-05-07T12:14:28.888Z,20.29
2019-05-07T12:15:18.604Z,20.29
2019-05-07T12:16:17.606Z,20.26
2019-05-07T12:17:17.578Z,20.19
2019-05-07T12:18:17.586Z,20.26
2019-05-07T12:19:17.581Z,20.29
2019-05-07T12:20:17.549Z,20.36
2019-05-07T12:21:21.220Z,20.37
2019-05-07T12:22:18.533Z,20.49
2019-05-07T12:23:17.514Z,20.42
2019-05-07T12:24:17.509Z,20.42
2019-05-07T12:25:17.499Z,20.46
2019-05-07T12:26:17.508Z,20.59
2019-05-07T12:27:17.473Z,20.58
2019-05-07T12:28:17.465Z,20.66
2019-05-07T12:29:17.454Z,20.70
2019-05-07T12:30:17.481Z,20.71
2019-05-07T12:31:17.531Z,20.77
2019-05-07T12:32:17.430Z,20.82
2019-05-07T12:33:17.417Z,20.82
2019-05-07T12:34:17.402Z,20.77
2019-05-07T12:35:17.602Z,20.80
2019-05-07T12:36:17.520Z,20.80
2019-05-07T12:37:17.366Z,20.77
2019-05-07T12:38:17.496Z,20.74
2019-05-07T12:39:17.352Z,20.80
2019-05-07T12:40:17.336Z,20.85
2019-05-07T12:41:17.339Z,20.83
2019-05-07T12:42:17.316Z,20.82
2019-05-07T12:43:17.384Z,20.92
2019-05-07T12:44:17.474Z,20.95
2019-05-07T12:45:17.287Z,21.00
2019-05-07T12:46:17.293Z,20.96
2019-05-07T12:47:17.260Z,21.04
2019-05-07T12:48:17.251Z,21.03
2019-05-07T12:49:17.250Z,20.98
2019-05-07T12:50:17.233Z,20.93
2019-05-07T12:51:17.239Z,20.93
2019-05-07T12:52:17.211Z,21.00